Time;durP1;ratioP1;P1;durP2;ratioP2;P2;SDS_P1;SDS_P2;PMS_P1;PMS_P2;Temp;Humidity;BMP_temperature;BMP_pressure;BME280_temperature;BME280_humidity;BME280_pressure;Samples;Min_cycle;Max_cycle;Signal;HPM_P1;HPM_P2
2022/07/05 00:00:09;;;;;;;6.22;2.28;;;15.10;99.90;;;;;;5028366;28;35628;-55
2022/07/05 00:02:36;;;;;;;4.63;2.38;;;15.10;99.90;;;;;;5029795;28;36318;-55
2022/07/05 00:05:04;;;;;;;5.78;2.08;;;15.10;99.90;;;;;;5028064;28;37981;-55
2022/07/05 00:07:31;;;;;;;5.88;2.30;;;15.00;99.90;;;;;;5027839;28;37429;-56
2022/07/05 00:09:59;;;;;;;6.80;1.98;;;15.00;99.90;;;;;;5028183;28;37197;-55
2022/07/05 00:12:29;;;;;;;3.85;2.10;;;15.00;99.90;;;;;;5027662;28;34465;-56
2022/07/05 00:14:58;;;;;;;6.15;2.30;;;15.00;99.90;;;;;;5027924;28;37603;-56
2022/07/05 00:17:26;;;;;;;3.47;2.03;;;14.90;99.90;;;;;;5027879;28;37175;-55
2022/07/05 00:19:53;;;;;;;4.55;2.58;;;14.90;99.90;;;;;;5028701;28;38380;-56
2022/07/05 00:22:21;;;;;;;4.22;2.15;;;14.90;99.90;;;;;;5028498;28;35288;-55
2022/07/05 00:24:50;;;;;;;5.30;2.58;;;14.90;99.90;;;;;;5028902;28;35758;-55
2022/07/05 00:27:17;;;;;;;5.95;2.30;;;14.90;99.90;;;;;;5028932;28;37186;-55
2022/07/05 00:29:45;;;;;;;5.63;2.22;;;14.80;99.90;;;;;;5028496;28;36700;-55
2022/07/05 00:32:13;;;;;;;5.05;2.30;;;14.90;99.90;;;;;;5029036;28;35285;-55
2022/07/05 00:34:41;;;;;;;6.65;2.25;;;14.80;99.90;;;;;;5026229;28;38350;-56
2022/07/05 00:37:08;;;;;;;7.03;2.30;;;14.90;99.90;;;;;;5029439;28;36615;-55
2022/07/05 00:39:35;;;;;;;7.22;2.80;;;14.90;99.90;;;;;;5029323;28;38905;-55
2022/07/05 00:42:03;;;;;;;4.45;2.03;;;14.90;99.90;;;;;;5027752;28;35529;-55
2022/07/05 00:44:32;;;;;;;6.75;2.80;;;14.80;99.90;;;;;;5029070;28;38034;-55
2022/07/05 00:46:59;;;;;;;5.65;2.45;;;14.90;99.90;;;;;;5028273;28;36956;-55
2022/07/05 00:49:28;;;;;;;4.80;2.45;;;14.90;99.90;;;;;;5028728;28;38296;-55
2022/07/05 00:51:56;;;;;;;4.55;2.17;;;14.90;99.90;;;;;;5028061;28;36639;-55
2022/07/05 00:54:23;;;;;;;5.43;2.50;;;14.90;99.90;;;;;;5028440;28;40221;-55
2022/07/05 00:56:51;;;;;;;5.40;2.40;;;14.90;99.90;;;;;;5027624;28;35923;-55
2022/07/05 00:59:18;;;;;;;5.28;2.40;;;14.90;99.90;;;;;;5028508;28;37527;-55
2022/07/05 01:01:45;;;;;;;6.20;2.90;;;14.80;99.90;;;;;;5028529;28;38542;-55
2022/07/05 01:04:13;;;;;;;6.82;2.78;;;14.80;99.90;;;;;;5027566;28;40371;-55
2022/07/05 01:06:45;;;;;;;6.72;2.60;;;14.80;99.90;;;;;;5025509;28;37586;-55
2022/07/05 01:09:14;;;;;;;5.35;2.70;;;14.70;99.90;;;;;;5027032;28;35678;-55
2022/07/05 01:11:42;;;;;;;7.50;2.72;;;14.70;99.90;;;;;;5026909;28;36532;-55
2022/07/05 01:14:11;;;;;;;6.32;2.60;;;14.70;99.90;;;;;;5025236;28;36323;-56
2022/07/05 01:16:39;;;;;;;4.32;2.22;;;14.70;99.90;;;;;;5026366;28;36046;-55
2022/07/05 01:19:07;;;;;;;5.68;2.90;;;14.70;99.90;;;;;;5026976;28;36583;-55
2022/07/05 01:21:39;;;;;;;5.57;2.83;;;14.70;99.90;;;;;;5026272;28;38195;-55
2022/07/05 01:24:10;;;;;;;5.50;2.33;;;14.60;99.90;;;;;;5027654;28;38203;-55
2022/07/05 01:26:38;;;;;;;5.75;2.40;;;14.70;99.90;;;;;;5027951;28;37685;-55
2022/07/05 01:29:06;;;;;;;7.97;3.47;;;14.60;99.90;;;;;;5028332;28;37165;-55
2022/07/05 01:31:33;;;;;;;9.07;2.90;;;14.70;99.90;;;;;;5026516;28;37247;-55
2022/07/05 01:34:01;;;;;;;6.07;2.55;;;14.70;99.90;;;;;;5027989;28;36393;-55
2022/07/05 01:36:28;;;;;;;7.15;3.05;;;14.60;99.90;;;;;;5028034;28;39757;-55
2022/07/05 01:38:55;;;;;;;5.65;3.17;;;14.60;99.90;;;;;;5027379;28;37955;-55
2022/07/05 01:41:24;;;;;;;8.25;2.72;;;14.60;99.90;;;;;;5028428;28;36302;-55
2022/07/05 01:43:51;;;;;;;8.40;3.35;;;14.60;99.90;;;;;;5027734;28;36306;-55
2022/07/05 01:46:22;;;;;;;7.28;3.00;;;14.60;99.90;;;;;;5026427;28;37499;-55
2022/07/05 01:48:52;;;;;;;8.25;2.92;;;14.50;99.90;;;;;;5026688;28;38088;-55
2022/07/05 01:51:23;;;;;;;4.88;2.85;;;14.60;99.90;;;;;;5028787;28;36800;-55
2022/07/05 01:53:52;;;;;;;7.72;3.28;;;14.50;99.90;;;;;;5028087;28;39029;-55
2022/07/05 01:56:20;;;;;;;11.38;3.88;;;14.50;99.90;;;;;;5031484;28;37267;-55
2022/07/05 01:58:52;;;;;;;7.35;4.00;;;14.50;99.90;;;;;;5031493;28;37941;-55
2022/07/05 02:01:33;;;;;;;6.28;3.35;;;14.50;99.90;;;;;;5030669;28;37017;-55
2022/07/05 02:04:00;;;;;;;7.93;4.03;;;14.50;99.90;;;;;;5031065;28;36292;-55
2022/07/05 02:06:28;;;;;;;9.68;3.55;;;14.50;99.90;;;;;;5031217;28;38649;-55
2022/07/05 02:08:55;;;;;;;5.75;3.50;;;14.50;99.90;;;;;;5030916;28;36957;-55
2022/07/05 02:11:22;;;;;;;6.95;3.45;;;14.40;99.90;;;;;;5031288;28;35862;-55
2022/07/05 02:13:51;;;;;;;5.47;3.42;;;14.40;99.90;;;;;;5029217;28;37946;-55
2022/07/05 02:16:18;;;;;;;7.63;4.25;;;14.40;99.90;;;;;;5029063;28;37902;-55
2022/07/05 02:18:45;;;;;;;6.53;3.88;;;14.40;99.90;;;;;;5030542;28;35787;-55
2022/07/05 02:21:13;;;;;;;7.20;3.65;;;14.40;99.90;;;;;;5030831;28;37098;-55
2022/07/05 02:23:40;;;;;;;5.40;3.60;;;14.40;99.90;;;;;;5029605;28;37417;-55
2022/07/05 02:26:08;;;;;;;7.68;4.82;;;14.40;99.90;;;;;;5031079;28;38686;-55
2022/07/05 02:28:35;;;;;;;9.27;5.00;;;14.40;99.90;;;;;;5030509;28;37163;-55
2022/07/05 02:31:04;;;;;;;7.93;5.00;;;14.30;99.90;;;;;;5029098;28;36433;-55
2022/07/05 02:33:31;;;;;;;9.13;5.22;;;14.30;99.90;;;;;;5031208;28;37800;-55
2022/07/05 02:36:05;;;;;;;6.30;4.75;;;14.30;99.90;;;;;;5031020;28;37145;-55
2022/07/05 02:38:32;;;;;;;9.05;5.60;;;14.30;99.90;;;;;;5030242;28;36482;-55
2022/07/05 02:41:00;;;;;;;10.73;7.03;;;14.30;99.90;;;;;;5030690;28;36713;-55
2022/07/05 02:43:27;;;;;;;10.27;6.95;;;14.20;99.90;;;;;;5028734;28;36205;-55
2022/07/05 02:45:55;;;;;;;10.52;6.55;;;14.20;99.90;;;;;;5030221;28;37254;-55
2022/07/05 02:48:23;;;;;;;10.43;6.57;;;14.20;99.90;;;;;;5029382;28;37145;-55
2022/07/05 02:50:51;;;;;;;9.43;5.70;;;14.20;99.90;;;;;;5029164;28;38311;-55
2022/07/05 02:53:18;;;;;;;9.68;4.72;;;14.20;99.90;;;;;;5030240;28;36326;-55
2022/07/05 02:55:45;;;;;;;8.23;4.53;;;14.20;99.90;;;;;;5030330;28;38106;-55
2022/07/05 02:58:13;;;;;;;6.82;4.22;;;14.20;99.90;;;;;;5029419;28;38078;-55
2022/07/05 03:00:40;;;;;;;7.32;4.15;;;14.20;99.90;;;;;;5029992;28;36196;-55
2022/07/05 03:03:07;;;;;;;5.45;3.83;;;14.20;99.90;;;;;;5031757;28;37626;-55
2022/07/05 03:05:36;;;;;;;6.00;3.85;;;14.10;99.90;;;;;;5029972;28;37725;-55
2022/07/05 03:08:03;;;;;;;6.15;4.03;;;14.20;99.90;;;;;;5028305;28;35957;-55
2022/07/05 03:10:31;;;;;;;7.18;4.55;;;14.20;99.90;;;;;;5030036;28;36176;-55
2022/07/05 03:12:58;;;;;;;7.72;4.47;;;14.10;99.90;;;;;;5029341;28;39946;-55
2022/07/05 03:15:25;;;;;;;5.97;3.63;;;14.10;99.90;;;;;;5029715;28;38562;-55
2022/07/05 03:17:53;;;;;;;7.28;4.35;;;14.10;99.90;;;;;;5029239;28;36922;-55
2022/07/05 03:20:20;;;;;;;8.57;4.10;;;14.10;99.90;;;;;;5029437;28;38364;-55
2022/07/05 03:22:49;;;;;;;5.65;3.92;;;14.10;99.90;;;;;;5028084;28;39028;-55
2022/07/05 03:25:16;;;;;;;6.65;3.72;;;14.10;99.90;;;;;;5028610;28;37076;-55
2022/07/05 03:27:43;;;;;;;6.47;4.70;;;14.10;99.90;;;;;;5029866;28;37952;-55
2022/07/05 03:30:12;;;;;;;8.35;4.32;;;14.10;99.90;;;;;;5028315;28;37835;-55
2022/07/05 03:32:39;;;;;;;7.13;4.22;;;14.10;99.90;;;;;;5028304;28;38611;-55
2022/07/05 03:35:08;;;;;;;7.32;3.70;;;14.10;99.90;;;;;;5029460;28;36794;-55
2022/07/05 03:37:36;;;;;;;7.03;3.80;;;14.10;99.90;;;;;;5028635;28;37174;-55
2022/07/05 03:40:07;;;;;;;7.68;4.15;;;14.00;99.90;;;;;;5029667;28;39096;-55
2022/07/05 03:42:35;;;;;;;7.93;4.38;;;14.10;99.90;;;;;;5029434;28;39544;-55
2022/07/05 03:45:02;;;;;;;7.25;4.63;;;14.10;99.90;;;;;;5029511;28;37502;-55
2022/07/05 03:47:29;;;;;;;7.60;4.30;;;14.10;99.90;;;;;;5029149;28;38494;-55
2022/07/05 03:49:57;;;;;;;8.35;4.57;;;14.20;99.90;;;;;;5030062;28;36461;-55
2022/07/05 03:52:24;;;;;;;6.80;4.25;;;14.20;99.90;;;;;;5029406;28;37442;-55
2022/07/05 03:54:51;;;;;;;6.43;3.75;;;14.30;99.90;;;;;;5028974;28;37548;-55
2022/07/05 03:57:20;;;;;;;6.53;4.43;;;14.40;99.90;;;;;;5028880;28;37025;-55
2022/07/05 03:59:47;;;;;;;6.93;3.85;;;14.40;99.90;;;;;;5029417;28;36385;-55
2022/07/05 04:02:15;;;;;;;6.53;3.92;;;14.50;99.90;;;;;;5029910;28;36218;-55
2022/07/05 04:04:42;;;;;;;7.60;4.20;;;14.60;99.90;;;;;;5028498;28;37554;-55
2022/07/05 04:07:09;;;;;;;7.05;4.07;;;14.60;99.90;;;;;;5028840;28;37893;-55
2022/07/05 04:09:37;;;;;;;6.65;3.88;;;14.60;99.90;;;;;;5028664;28;35346;-55
2022/07/05 04:12:05;;;;;;;6.95;3.78;;;14.60;99.90;;;;;;5027781;28;38323;-55
2022/07/05 04:14:34;;;;;;;7.78;4.18;;;14.60;99.90;;;;;;5027687;28;38290;-55
2022/07/05 04:17:02;;;;;;;6.30;3.85;;;14.60;99.90;;;;;;5027981;28;37210;-55
2022/07/05 04:19:30;;;;;;;7.40;4.07;;;14.60;99.90;;;;;;5027291;28;35474;-55
2022/07/05 04:21:57;;;;;;;6.90;4.50;;;14.60;99.90;;;;;;5029380;28;38404;-55
2022/07/05 04:24:24;;;;;;;8.43;4.60;;;14.60;99.90;;;;;;5028564;28;36707;-55
2022/07/05 04:26:52;;;;;;;7.43;3.58;;;14.70;99.90;;;;;;5029141;28;36820;-55
2022/07/05 04:29:19;;;;;;;5.45;3.88;;;14.80;99.90;;;;;;5028314;28;36243;-55
2022/07/05 04:31:48;;;;;;;7.45;3.42;;;15.00;99.90;;;;;;5027631;28;37544;-55
2022/07/05 04:34:15;;;;;;;8.63;3.50;;;15.20;99.90;;;;;;5028676;28;36956;-55
2022/07/05 04:36:43;;;;;;;8.40;3.70;;;15.40;99.90;;;;;;5027369;28;37832;-55
2022/07/05 04:39:10;;;;;;;9.50;3.60;;;15.50;99.90;;;;;;5028338;28;35275;-55
2022/07/05 04:41:38;;;;;;;7.07;3.50;;;15.60;99.90;;;;;;5027454;28;39973;-55
2022/07/05 04:44:05;;;;;;;6.40;3.30;;;15.60;99.90;;;;;;5028320;28;37602;-55
2022/07/05 04:46:32;;;;;;;6.53;3.25;;;15.60;99.90;;;;;;5026633;28;37445;-55
2022/07/05 04:49:02;;;;;;;7.65;3.13;;;15.70;99.90;;;;;;5028681;28;36740;-55
2022/07/05 04:51:29;;;;;;;6.32;3.10;;;15.80;99.90;;;;;;5028264;28;41373;-55
2022/07/05 04:53:56;;;;;;;7.43;3.45;;;15.90;99.90;;;;;;5026903;28;38799;-55
2022/07/05 04:56:24;;;;;;;6.07;3.25;;;15.90;99.90;;;;;;5027631;28;37014;-55
2022/07/05 04:58:51;;;;;;;5.43;3.10;;;15.90;99.90;;;;;;5027836;28;36063;-55
2022/07/05 05:01:19;;;;;;;5.82;3.45;;;15.90;99.90;;;;;;5027077;28;37703;-55
2022/07/05 05:03:46;;;;;;;6.85;3.30;;;16.00;99.90;;;;;;5028149;28;37830;-55
2022/07/05 05:06:15;;;;;;;5.57;3.40;;;16.20;99.90;;;;;;5027907;28;36553;-55
2022/07/05 05:08:42;;;;;;;7.38;3.35;;;16.30;99.90;;;;;;5026265;28;38780;-55
2022/07/05 05:11:10;;;;;;;4.97;3.15;;;16.30;99.90;;;;;;5026750;28;38074;-55
2022/07/05 05:13:37;;;;;;;5.90;3.20;;;16.30;99.90;;;;;;5026778;28;37243;-55
2022/07/05 05:16:05;;;;;;;6.75;3.67;;;16.30;99.90;;;;;;5026508;28;38398;-55
2022/07/05 05:18:35;;;;;;;8.10;3.97;;;16.50;99.90;;;;;;5027016;28;38884;-55
2022/07/05 05:21:03;;;;;;;5.97;2.88;;;16.70;99.90;;;;;;5026270;28;39088;-56
2022/07/05 05:23:31;;;;;;;6.18;3.17;;;16.90;99.90;;;;;;5026533;28;39694;-56
2022/07/05 05:25:59;;;;;;;7.15;3.08;;;17.00;99.90;;;;;;5027156;28;36940;-56
2022/07/05 05:28:26;;;;;;;6.80;3.08;;;17.10;99.90;;;;;;5028376;28;36521;-56
2022/07/05 05:30:53;;;;;;;12.65;3.00;;;17.30;99.90;;;;;;5030766;28;38174;-56
2022/07/05 05:33:20;;;;;;;7.18;2.38;;;17.40;99.90;;;;;;5030300;28;37687;-56
2022/07/05 05:35:48;;;;;;;5.07;2.47;;;17.50;99.90;;;;;;5029519;28;37184;-56
2022/07/05 05:38:15;;;;;;;6.38;2.55;;;17.60;99.90;;;;;;5029848;28;36366;-55
2022/07/05 05:40:44;;;;;;;4.45;2.40;;;17.70;99.90;;;;;;5030006;28;38071;-56
2022/07/05 05:43:12;;;;;;;5.55;2.00;;;17.80;99.90;;;;;;5028916;28;38164;-56
2022/07/05 05:45:39;;;;;;;7.07;2.30;;;17.80;99.90;;;;;;5030579;28;37279;-56
2022/07/05 05:48:07;;;;;;;4.63;1.85;;;18.00;99.90;;;;;;5029392;28;35326;-56
2022/07/05 05:50:36;;;;;;;7.20;1.98;;;18.10;99.90;;;;;;5030763;28;38613;-56
2022/07/05 05:53:03;;;;;;;6.38;1.65;;;18.20;99.90;;;;;;5030987;28;37813;-56
2022/07/05 05:55:32;;;;;;;4.45;1.85;;;18.30;99.90;;;;;;5030720;28;36980;-56
2022/07/05 05:58:13;;;;;;;5.75;1.60;;;18.50;99.90;;;;;;5031907;28;35934;-56
2022/07/05 06:00:40;;;;;;;4.57;1.73;;;18.60;99.70;;;;;;5030209;28;37090;-56
2022/07/05 06:03:08;;;;;;;4.18;1.30;;;18.70;99.60;;;;;;5031269;28;37249;-56
2022/07/05 06:05:35;;;;;;;4.43;1.52;;;18.80;99.30;;;;;;5031752;28;35716;-56
2022/07/05 06:08:03;;;;;;;4.32;1.48;;;18.90;99.20;;;;;;5031677;28;38273;-56
2022/07/05 06:10:32;;;;;;;5.32;1.63;;;19.00;99.10;;;;;;5030672;28;38447;-56
2022/07/05 06:13:01;;;;;;;5.93;1.50;;;19.10;99.00;;;;;;5030012;28;38316;-56
2022/07/05 06:15:30;;;;;;;7.88;1.50;;;19.20;98.90;;;;;;5030424;28;36737;-56
2022/07/05 06:17:57;;;;;;;3.25;1.10;;;19.20;98.60;;;;;;5030644;28;36522;-56
2022/07/05 06:20:28;;;;;;;6.30;1.30;;;19.30;98.40;;;;;;5031007;28;39016;-56
2022/07/05 06:22:56;;;;;;;2.50;0.95;;;19.30;98.30;;;;;;5027907;28;37377;-56
2022/07/05 06:25:24;;;;;;;3.85;1.05;;;19.30;98.20;;;;;;5027534;28;36762;-56
2022/07/05 06:27:53;;;;;;;6.93;1.50;;;19.40;98.10;;;;;;5028962;28;35319;-56
2022/07/05 06:30:23;;;;;;;4.00;1.30;;;19.50;97.90;;;;;;5029033;28;36225;-56
2022/07/05 06:32:52;;;;;;;6.70;1.77;;;19.50;97.90;;;;;;5028572;28;39755;-56
2022/07/05 06:35:21;;;;;;;5.90;1.60;;;19.60;97.90;;;;;;5028708;28;36006;-56
2022/07/05 06:37:51;;;;;;;4.55;0.90;;;19.70;97.90;;;;;;5029080;28;36800;-56
2022/07/05 06:40:20;;;;;;;5.30;1.08;;;19.80;97.90;;;;;;5026361;28;37827;-56
2022/07/05 06:42:48;;;;;;;12.98;2.42;;;19.80;97.60;;;;;;5028550;28;38329;-56
2022/07/05 06:45:15;;;;;;;8.07;1.33;;;19.90;97.70;;;;;;5027116;28;36770;-56
2022/07/05 06:47:43;;;;;;;5.00;1.30;;;19.90;97.30;;;;;;5028749;28;37256;-56
2022/07/05 06:50:11;;;;;;;4.40;1.00;;;19.90;97.30;;;;;;5029112;28;37515;-56
2022/07/05 06:52:40;;;;;;;8.35;1.48;;;20.00;97.10;;;;;;5028375;28;37913;-56
2022/07/05 06:55:08;;;;;;;3.92;1.23;;;20.00;97.10;;;;;;5028389;28;36928;-56
2022/07/05 06:57:36;;;;;;;6.07;1.13;;;20.10;97.00;;;;;;5029298;28;37728;-56
2022/07/05 07:00:04;;;;;;;4.63;0.90;;;20.10;96.50;;;;;;5028661;28;38072;-56
2022/07/05 07:02:32;;;;;;;5.05;1.20;;;20.20;96.50;;;;;;5028450;28;39581;-56
2022/07/05 07:04:59;;;;;;;3.92;0.73;;;20.30;96.50;;;;;;5028740;28;36114;-56
2022/07/05 07:10:13;;;;;;;5.85;0.73;;;20.40;94.40;;;;;;5028455;28;38281;-56
2022/07/05 07:12:40;;;;;;;7.68;1.30;;;20.40;94.30;;;;;;5026812;28;36415;-56
2022/07/05 07:15:08;;;;;;;5.72;1.00;;;20.50;94.30;;;;;;5028573;28;37413;-56
2022/07/05 07:17:36;;;;;;;5.75;1.20;;;20.60;94.10;;;;;;5023578;28;37189;-56
2022/07/05 07:20:03;;;;;;;8.15;1.27;;;20.50;93.60;;;;;;5028773;28;37562;-56
2022/07/05 07:22:32;;;;;;;4.65;0.90;;;20.50;93.60;;;;;;5028347;28;36615;-56
2022/07/05 07:24:59;;;;;;;5.68;1.63;;;20.40;93.60;;;;;;5028541;28;36127;-56
2022/07/05 07:27:27;;;;;;;3.83;0.80;;;20.30;94.00;;;;;;5026254;28;36570;-56
2022/07/05 07:29:54;;;;;;;4.50;0.80;;;20.20;93.90;;;;;;5029021;28;37692;-56
2022/07/05 07:32:22;;;;;;;5.05;0.80;;;20.20;93.80;;;;;;5028520;28;38334;-56
2022/07/05 07:34:49;;;;;;;4.70;0.82;;;20.20;94.00;;;;;;5028476;28;39075;-56
2022/07/05 07:37:18;;;;;;;3.75;0.82;;;20.30;93.00;;;;;;5028640;28;36602;-56
2022/07/05 07:39:47;;;;;;;4.00;0.80;;;20.50;92.80;;;;;;5028675;28;39106;-56
2022/07/05 07:42:14;;;;;;;6.38;0.93;;;20.60;92.20;;;;;;5028338;28;37891;-56
2022/07/05 07:44:42;;;;;;;3.80;0.77;;;20.70;91.60;;;;;;5029219;28;37202;-56
2022/07/05 07:47:09;;;;;;;5.43;0.98;;;20.70;90.90;;;;;;5028262;28;37690;-56
2022/07/05 07:49:37;;;;;;;6.45;1.30;;;20.50;91.00;;;;;;5029041;28;39462;-56
2022/07/05 07:52:07;;;;;;;3.95;1.10;;;20.30;91.20;;;;;;5028987;28;36425;-56
2022/07/05 07:54:34;;;;;;;3.88;0.73;;;20.20;91.40;;;;;;5027901;28;38696;-56
2022/07/05 07:57:05;;;;;;;10.68;1.15;;;20.00;91.50;;;;;;5029151;28;37423;-56
2022/07/05 07:59:32;;;;;;;5.30;0.90;;;19.80;91.00;;;;;;5027974;28;36310;-56
2022/07/05 08:01:59;;;;;;;3.80;0.80;;;19.70;91.00;;;;;;5026921;28;37623;-56
2022/07/05 08:04:27;;;;;;;3.45;1.00;;;19.70;91.50;;;;;;5027843;28;37107;-56
2022/07/05 08:06:54;;;;;;;5.60;1.05;;;19.90;91.90;;;;;;5027389;28;37253;-56
2022/07/05 08:09:21;;;;;;;8.70;1.17;;;20.10;92.00;;;;;;5027382;28;38218;-56
2022/07/05 08:11:49;;;;;;;8.25;1.17;;;20.20;91.80;;;;;;5026878;28;36590;-56
2022/07/05 08:14:19;;;;;;;4.22;0.70;;;20.10;90.00;;;;;;5027684;28;40987;-56
2022/07/05 08:16:48;;;;;;;7.13;1.20;;;20.10;89.10;;;;;;5027672;28;35423;-56
2022/07/05 08:22:01;;;;;;;4.82;1.10;;;20.00;89.60;;;;;;5029977;28;37953;-56
2022/07/05 08:24:28;;;;;;;4.10;1.02;;;19.90;89.80;;;;;;5028486;28;37111;-56
2022/07/05 08:26:55;;;;;;;5.43;1.30;;;19.90;89.70;;;;;;5028732;28;36617;-56
2022/07/05 08:29:24;;;;;;;6.38;1.15;;;19.90;88.80;;;;;;5029515;28;36270;-56
2022/07/05 08:31:52;;;;;;;4.03;1.00;;;19.90;88.00;;;;;;5027728;28;39057;-56
2022/07/05 08:34:20;;;;;;;10.45;1.75;;;19.90;89.50;;;;;;5027875;28;37423;-56
2022/07/05 08:36:48;;;;;;;8.60;1.60;;;20.00;90.40;;;;;;5026863;28;38500;-56
2022/07/05 08:39:16;;;;;;;6.72;1.00;;;20.20;90.70;;;;;;5027786;28;37362;-56
2022/07/05 08:41:47;;;;;;;4.60;0.80;;;20.30;90.90;;;;;;5027936;28;37671;-56
2022/07/05 08:44:18;;;;;;;5.82;0.85;;;20.40;90.70;;;;;;5028334;28;37705;-56
2022/07/05 08:46:50;;;;;;;5.10;0.90;;;20.50;90.00;;;;;;5029030;28;37100;-56
2022/07/05 08:49:22;;;;;;;3.30;0.82;;;20.60;89.90;;;;;;5029563;28;36428;-56
2022/07/05 08:51:51;;;;;;;4.63;0.73;;;20.80;90.60;;;;;;5029340;28;37560;-56
2022/07/05 08:54:18;;;;;;;5.90;1.23;;;20.90;88.90;;;;;;5028411;28;37473;-56
2022/07/05 08:56:46;;;;;;;2.38;0.70;;;21.00;88.40;;;;;;5028948;28;35300;-56
2022/07/05 08:59:13;;;;;;;5.05;0.88;;;21.10;86.10;;;;;;5028762;28;37395;-56
2022/07/05 09:01:42;;;;;;;4.30;0.70;;;21.10;85.40;;;;;;5028477;28;37533;-56
2022/07/05 09:04:12;;;;;;;7.63;1.63;;;21.10;85.20;;;;;;5028109;28;38090;-56
2022/07/05 09:06:40;;;;;;;5.60;0.88;;;20.90;83.60;;;;;;5028428;28;36606;-56
2022/07/05 09:09:08;;;;;;;4.82;1.00;;;20.80;83.10;;;;;;5028373;28;40147;-57
2022/07/05 09:11:38;;;;;;;5.25;1.05;;;20.90;83.30;;;;;;5028122;28;41633;-56
2022/07/05 09:14:07;;;;;;;4.95;0.93;;;21.00;83.80;;;;;;5028248;28;38655;-56
2022/07/05 09:16:35;;;;;;;9.32;1.60;;;21.00;83.50;;;;;;5027978;28;36744;-56
2022/07/05 09:19:12;;;;;;;10.63;1.50;;;21.10;85.20;;;;;;5027506;28;36217;-56
2022/07/05 09:21:39;;;;;;;14.90;1.27;;;21.20;86.50;;;;;;5029090;28;36417;-56
2022/07/05 09:24:09;;;;;;;8.25;1.38;;;21.40;87.30;;;;;;5028289;28;39644;-56
2022/07/05 09:26:38;;;;;;;4.60;0.85;;;21.30;84.40;;;;;;5028747;28;36665;-56
2022/07/05 09:29:08;;;;;;;14.75;2.03;;;21.10;83.80;;;;;;5027947;28;38669;-56
2022/07/05 09:31:37;;;;;;;8.07;1.20;;;20.90;83.70;;;;;;5027694;28;37787;-55
2022/07/05 09:34:06;;;;;;;5.93;0.90;;;20.80;84.80;;;;;;5028899;28;36577;-55
2022/07/05 09:39:40;;;;;;;84.60;6.40;;;20.70;83.90;;;;;;5119743;27;20414;-54
2022/07/05 09:42:13;;;;;;;15.10;2.00;;;20.70;88.00;;;;;;5104200;27;37031;-54
2022/07/05 09:44:43;;;;;;;5.28;1.13;;;20.80;86.60;;;;;;5104517;27;37882;-55
2022/07/05 09:47:12;;;;;;;14.18;1.48;;;20.90;84.00;;;;;;5103706;27;37604;-55
2022/07/05 09:49:43;;;;;;;64.28;4.28;;;21.00;85.00;;;;;;5104441;27;36895;-55
2022/07/05 09:52:10;;;;;;;5.97;1.17;;;21.20;83.60;;;;;;5104757;27;35821;-55
2022/07/05 09:54:40;;;;;;;28.63;3.90;;;21.40;83.00;;;;;;5106163;27;38922;-55
2022/07/05 09:57:09;;;;;;;7.68;1.23;;;21.60;81.80;;;;;;5106466;27;37563;-55
2022/07/05 09:59:36;;;;;;;11.38;1.65;;;21.70;81.80;;;;;;5106420;27;38278;-55
2022/07/05 10:02:04;;;;;;;61.17;7.45;;;21.80;80.80;;;;;;5106189;27;35533;-55
2022/07/05 10:04:31;;;;;;;6.30;1.15;;;21.90;81.00;;;;;;5104359;27;37701;-55
2022/07/05 10:06:58;;;;;;;23.98;4.28;;;22.00;81.00;;;;;;5105729;27;39610;-55
2022/07/05 10:09:26;;;;;;;27.13;3.58;;;22.20;81.00;;;;;;5105442;27;37683;-55
2022/07/05 10:11:55;;;;;;;8.75;1.38;;;22.20;80.10;;;;;;5106088;27;40002;-55
2022/07/05 10:14:22;;;;;;;7.93;1.38;;;22.10;78.90;;;;;;5106905;27;37032;-55
2022/07/05 10:17:02;;;;;;;5.18;0.93;;;21.80;77.90;;;;;;5106180;27;38686;-57
2022/07/05 10:19:34;;;;;;;4.47;1.20;;;21.60;74.40;;;;;;5106639;27;35854;-55
2022/07/05 10:22:03;;;;;;;4.07;0.97;;;21.50;76.50;;;;;;5106126;27;36944;-55
2022/07/05 10:24:36;;;;;;;6.38;1.38;;;21.60;77.20;;;;;;5107380;27;37638;-55
2022/07/05 10:27:07;;;;;;;;;;;21.60;76.40;;;;;;5106951;27;40206;-55
2022/07/05 10:29:35;;;;;;;4.32;1.25;;;21.60;77.00;;;;;;5106893;27;36520;-55
2022/07/05 10:32:05;;;;;;;4.28;0.80;;;21.70;80.60;;;;;;5105844;27;37834;-55
2022/07/05 10:34:34;;;;;;;63.05;2.80;;;22.00;81.90;;;;;;5106732;27;36539;-55
2022/07/05 10:37:01;;;;;;;3.20;0.90;;;22.10;80.20;;;;;;5104894;27;37480;-55
2022/07/05 10:39:29;;;;;;;17.15;1.83;;;22.30;78.70;;;;;;5105485;27;37961;-54
2022/07/05 10:41:57;;;;;;;94.10;7.68;;;22.50;77.50;;;;;;5105600;27;36976;-54
2022/07/05 10:44:32;;;;;;;26.58;3.28;;;22.50;76.00;;;;;;5104956;27;36607;-55
2022/07/05 10:47:12;;;;;;;5.72;1.23;;;22.40;75.00;;;;;;5105367;27;37453;-55
2022/07/05 10:49:40;;;;;;;5.15;0.80;;;22.40;74.40;;;;;;5099229;27;37232;-55
2022/07/05 10:52:23;;;;;;;5.63;1.02;;;22.50;74.10;;;;;;5092713;27;38764;-55
2022/07/05 10:55:19;;;;;;;6.43;0.80;;;22.50;73.70;;;;;;5092805;27;35319;-55
2022/07/05 10:58:24;;;;;;;3.67;1.15;;;22.50;72.10;;;;;;5090711;27;36308;-55
2022/07/05 11:01:25;;;;;;;4.57;1.17;;;22.20;72.10;;;;;;5092298;27;38023;-55
2022/07/05 11:03:57;;;;;;;5.85;0.88;;;22.00;74.60;;;;;;5086419;27;37099;-55
2022/07/05 11:06:25;;;;;;;6.63;1.10;;;21.70;75.50;;;;;;5091799;27;36648;-55
2022/07/05 11:09:16;;;;;;;7.95;0.93;;;21.50;75.60;;;;;;5091612;27;37383;-55
2022/07/05 11:11:44;;;;;;;5.13;0.80;;;21.40;78.30;;;;;;5091599;27;38045;-58
2022/07/05 11:14:39;;;;;;;19.63;1.50;;;21.50;78.40;;;;;;5091142;27;35855;-55
2022/07/05 11:17:25;;;;;;;7.80;1.10;;;21.50;78.10;;;;;;5092371;27;37842;-55
2022/07/05 11:20:12;;;;;;;8.50;1.75;;;21.70;78.30;;;;;;5090688;27;38602;-55
2022/07/05 11:22:42;;;;;;;6.47;1.42;;;21.80;79.90;;;;;;5090791;27;37511;-55
2022/07/05 11:25:11;;;;;;;6.45;1.00;;;22.00;78.90;;;;;;5090761;27;38314;-55
2022/07/05 11:28:13;;;;;;;34.13;3.72;;;22.00;77.50;;;;;;5090167;27;38006;-55
2022/07/05 11:30:52;;;;;;;6.60;0.88;;;22.00;77.00;;;;;;5089230;27;38270;-55
2022/07/05 11:33:34;;;;;;;3.47;0.90;;;21.80;76.20;;;;;;5088788;27;36832;-55
2022/07/05 11:36:04;;;;;;;5.30;0.80;;;21.70;75.30;;;;;;5089447;27;38191;-55
2022/07/05 11:38:31;;;;;;;2.22;0.50;;;21.50;75.40;;;;;;5089296;27;38197;-55
2022/07/05 11:41:13;;;;;;;3.20;0.75;;;21.30;74.60;;;;;;5090641;27;37708;-55
2022/07/05 11:43:42;;;;;;;9.20;1.27;;;21.10;72.00;;;;;;5091046;27;37110;-55
2022/07/05 11:46:10;;;;;;;2.42;0.77;;;20.90;72.30;;;;;;5089982;27;37749;-55
2022/07/05 11:48:39;;;;;;;6.60;0.82;;;20.70;71.50;;;;;;5089824;27;38968;-55
2022/07/05 11:51:17;;;;;;;5.82;1.30;;;20.50;72.60;;;;;;5091166;27;40305;-55
2022/07/05 11:53:45;;;;;;;2.70;0.50;;;20.40;73.80;;;;;;5087476;27;36717;-55
2022/07/05 11:56:13;;;;;;;6.15;1.20;;;20.30;74.90;;;;;;5089861;27;35601;-55
2022/07/05 11:58:40;;;;;;;6.30;1.52;;;20.20;80.80;;;;;;5088198;27;36074;-55
2022/07/05 12:01:08;;;;;;;7.68;1.20;;;20.10;84.70;;;;;;5089160;27;37303;-55
2022/07/05 12:03:35;;;;;;;6.40;1.00;;;20.10;84.60;;;;;;5089941;27;35745;-55
2022/07/05 12:06:13;;;;;;;6.60;1.08;;;20.00;86.60;;;;;;5091368;27;38731;-55
2022/07/05 12:08:42;;;;;;;7.70;1.08;;;19.90;87.30;;;;;;5089953;27;39143;-55
2022/07/05 12:14:08;;;;;;;4.53;1.23;;;19.80;89.00;;;;;;5020154;28;36639;-56
2022/07/05 12:16:35;;;;;;;7.53;1.00;;;19.70;89.70;;;;;;5073132;27;36608;-56
2022/07/05 12:19:05;;;;;;;9.07;1.45;;;19.80;90.20;;;;;;5090400;27;35163;-55
2022/07/05 12:21:32;;;;;;;4.22;1.13;;;19.80;89.90;;;;;;5090445;27;38001;-56
2022/07/05 12:24:01;;;;;;;5.43;0.90;;;19.90;90.50;;;;;;5090919;27;37827;-56
2022/07/05 12:26:29;;;;;;;12.48;1.23;;;19.90;90.40;;;;;;5089757;27;35832;-55
2022/07/05 12:28:56;;;;;;;6.28;1.02;;;19.90;90.50;;;;;;5090162;27;35388;-55
2022/07/05 12:31:25;;;;;;;5.95;1.10;;;19.80;90.50;;;;;;5089753;27;38425;-55
2022/07/05 12:33:53;;;;;;;7.32;0.90;;;19.80;90.20;;;;;;5090550;27;37679;-56
2022/07/05 12:36:23;;;;;;;6.68;1.30;;;19.80;90.50;;;;;;5089077;27;36675;-55
2022/07/05 12:38:50;;;;;;;9.40;5.10;;;19.80;90.30;;;;;;5089913;27;36512;-55
2022/07/05 12:41:23;;;;;;;5.55;1.33;;;19.70;90.10;;;;;;5090307;27;37947;-55
2022/07/05 12:43:52;;;;;;;7.03;0.80;;;19.70;90.80;;;;;;5090242;27;37038;-56
2022/07/05 12:46:20;;;;;;;5.78;1.55;;;19.70;91.20;;;;;;5090104;27;38650;-55
2022/07/05 12:48:53;;;;;;;5.57;1.02;;;19.60;91.00;;;;;;5090272;27;36944;-56
2022/07/05 12:51:34;;;;;;;21.95;2.65;;;19.50;90.20;;;;;;5090255;27;37531;-55
2022/07/05 12:59:37;;;;;;;17.27;2.05;;;19.30;87.30;;;;;;5089881;27;38413;-55
2022/07/05 13:02:05;;;;;;;4.43;1.13;;;19.20;87.70;;;;;;5090041;27;37393;-55
2022/07/05 13:04:32;;;;;;;4.97;1.05;;;19.20;88.40;;;;;;5090269;27;36927;-55
2022/07/05 13:07:02;;;;;;;5.25;0.88;;;19.20;90.00;;;;;;5090249;27;38012;-55
2022/07/05 13:09:34;;;;;;;9.07;1.00;;;19.20;90.60;;;;;;5090187;27;35248;-58
2022/07/05 13:12:11;;;;;;;2.58;0.70;;;19.40;90.70;;;;;;5089423;27;36723;-57